VDSV

Sihanoukville International Airport

Airport
ICAO code
VDSV
IATA Code
KOS
Summary
ICAO Region
APAC
ICAO Territory
Location

Kong King, Preah Sihanouk

Serving
Sihanoukville
Elevation
40 ft
Coordinates
10° 34' 40" N , 103° 38' 12" E
KCC
Aw
Metar
Observation
VDSV 080230Z 35006KT 9999 SCT015 BKN040 23/22 Q1009
Station
Sihanoukville International Airport
Date/Time
2022-08-08 02:30:00
Wind direction
350°
Wind speed
06 kts
Lowest cloud amount
scattered clouds
Temperature
23°C
Dew point
22°C
Humidity
94%
QNH
1009 hPa
Weather condition
n/a

Sihanouk International Airport, located 18 km east of Preah Sihanouk Province, is Cambodia's third international airport. The airport is also known as Kang Keng Airport. The IATA code KOS dates from Sihanoukville's former name Kompong Som.

Climatology

Tropical Savanna climate (Köppen climate classification Aw)

Airport map

Aerial View

SKYbrary Partners:

Safety knowledge contributed by: